sensor_id;sensor_type;location;lat;lon;timestamp;P1;durP1;ratioP1;P2;durP2;ratioP2
14381;SDS011;7275;50.328;8.720;2023-04-15T00:01:34;3.60;;;2.97;;
14381;SDS011;7275;50.328;8.720;2023-04-15T00:04:04;3.77;;;2.90;;
14381;SDS011;7275;50.328;8.720;2023-04-15T00:06:32;4.47;;;3.40;;
14381;SDS011;7275;50.328;8.720;2023-04-15T00:09:00;5.83;;;3.83;;
14381;SDS011;7275;50.328;8.720;2023-04-15T00:11:28;6.53;;;4.20;;
14381;SDS011;7275;50.328;8.720;2023-04-15T00:13:55;6.87;;;5.10;;
14381;SDS011;7275;50.328;8.720;2023-04-15T00:16:23;7.93;;;5.07;;
14381;SDS011;7275;50.328;8.720;2023-04-15T00:18:51;8.50;;;5.77;;
14381;SDS011;7275;50.328;8.720;2023-04-15T00:21:20;7.10;;;5.10;;
14381;SDS011;7275;50.328;8.720;2023-04-15T00:23:48;8.97;;;5.80;;
14381;SDS011;7275;50.328;8.720;2023-04-15T00:26:18;7.20;;;5.00;;
14381;SDS011;7275;50.328;8.720;2023-04-15T00:28:46;6.13;;;5.03;;
14381;SDS011;7275;50.328;8.720;2023-04-15T00:31:14;7.17;;;4.60;;
14381;SDS011;7275;50.328;8.720;2023-04-15T00:33:41;5.20;;;3.93;;
14381;SDS011;7275;50.328;8.720;2023-04-15T00:36:09;4.20;;;3.60;;
14381;SDS011;7275;50.328;8.720;2023-04-15T00:38:38;4.53;;;3.50;;
14381;SDS011;7275;50.328;8.720;2023-04-15T00:41:06;4.53;;;3.33;;
14381;SDS011;7275;50.328;8.720;2023-04-15T00:43:34;3.33;;;2.77;;
14381;SDS011;7275;50.328;8.720;2023-04-15T00:46:01;3.80;;;2.70;;
14381;SDS011;7275;50.328;8.720;2023-04-15T00:48:30;4.07;;;2.70;;
14381;SDS011;7275;50.328;8.720;2023-04-15T00:50:58;3.20;;;2.30;;
14381;SDS011;7275;50.328;8.720;2023-04-15T00:53:26;3.70;;;2.30;;
14381;SDS011;7275;50.328;8.720;2023-04-15T00:55:54;4.13;;;2.00;;
14381;SDS011;7275;50.328;8.720;2023-04-15T00:58:22;2.83;;;2.13;;
14381;SDS011;7275;50.328;8.720;2023-04-15T01:00:50;2.47;;;2.03;;
14381;SDS011;7275;50.328;8.720;2023-04-15T01:03:19;2.50;;;2.03;;
14381;SDS011;7275;50.328;8.720;2023-04-15T01:05:47;5.10;;;3.03;;
14381;SDS011;7275;50.328;8.720;2023-04-15T01:08:16;3.97;;;2.80;;
14381;SDS011;7275;50.328;8.720;2023-04-15T01:10:43;3.97;;;2.70;;
14381;SDS011;7275;50.328;8.720;2023-04-15T01:13:12;4.00;;;3.20;;
14381;SDS011;7275;50.328;8.720;2023-04-15T01:15:40;3.90;;;2.80;;
14381;SDS011;7275;50.328;8.720;2023-04-15T01:18:08;3.47;;;2.60;;
14381;SDS011;7275;50.328;8.720;2023-04-15T01:20:36;4.50;;;3.07;;
14381;SDS011;7275;50.328;8.720;2023-04-15T01:23:04;4.70;;;3.40;;
14381;SDS011;7275;50.328;8.720;2023-04-15T01:25:33;7.13;;;3.70;;
14381;SDS011;7275;50.328;8.720;2023-04-15T01:28:02;4.80;;;3.43;;
14381;SDS011;7275;50.328;8.720;2023-04-15T01:30:32;4.97;;;3.73;;
14381;SDS011;7275;50.328;8.720;2023-04-15T01:33:00;7.10;;;3.90;;
14381;SDS011;7275;50.328;8.720;2023-04-15T01:35:28;5.60;;;3.90;;
14381;SDS011;7275;50.328;8.720;2023-04-15T01:37:56;5.10;;;4.23;;
14381;SDS011;7275;50.328;8.720;2023-04-15T01:40:29;5.10;;;4.00;;
14381;SDS011;7275;50.328;8.720;2023-04-15T01:42:58;4.07;;;3.67;;
14381;SDS011;7275;50.328;8.720;2023-04-15T01:45:26;4.30;;;3.70;;
14381;SDS011;7275;50.328;8.720;2023-04-15T01:47:53;4.47;;;3.77;;
14381;SDS011;7275;50.328;8.720;2023-04-15T01:50:21;3.80;;;3.33;;
14381;SDS011;7275;50.328;8.720;2023-04-15T01:52:48;3.70;;;3.20;;
14381;SDS011;7275;50.328;8.720;2023-04-15T01:55:16;3.70;;;2.97;;
14381;SDS011;7275;50.328;8.720;2023-04-15T01:57:44;4.83;;;3.20;;
14381;SDS011;7275;50.328;8.720;2023-04-15T02:00:13;3.63;;;2.80;;
14381;SDS011;7275;50.328;8.720;2023-04-15T02:02:41;2.73;;;2.27;;
14381;SDS011;7275;50.328;8.720;2023-04-15T02:05:10;2.43;;;2.23;;
14381;SDS011;7275;50.328;8.720;2023-04-15T02:07:37;3.00;;;2.17;;
14381;SDS011;7275;50.328;8.720;2023-04-15T02:10:05;2.90;;;2.17;;
14381;SDS011;7275;50.328;8.720;2023-04-15T02:12:33;2.57;;;2.10;;
14381;SDS011;7275;50.328;8.720;2023-04-15T02:15:01;2.60;;;1.87;;
14381;SDS011;7275;50.328;8.720;2023-04-15T02:17:29;1.90;;;1.70;;
14381;SDS011;7275;50.328;8.720;2023-04-15T02:20:01;2.20;;;1.90;;
14381;SDS011;7275;50.328;8.720;2023-04-15T02:22:29;2.83;;;1.80;;
14381;SDS011;7275;50.328;8.720;2023-04-15T02:24:57;2.00;;;1.70;;
14381;SDS011;7275;50.328;8.720;2023-04-15T02:27:25;2.47;;;1.93;;
14381;SDS011;7275;50.328;8.720;2023-04-15T02:29:54;2.73;;;2.00;;
14381;SDS011;7275;50.328;8.720;2023-04-15T02:32:21;2.37;;;2.10;;
14381;SDS011;7275;50.328;8.720;2023-04-15T02:34:50;2.70;;;2.20;;
14381;SDS011;7275;50.328;8.720;2023-04-15T02:37:18;2.40;;;2.00;;
14381;SDS011;7275;50.328;8.720;2023-04-15T02:39:45;3.63;;;2.50;;
14381;SDS011;7275;50.328;8.720;2023-04-15T02:42:13;4.80;;;2.97;;
14381;SDS011;7275;50.328;8.720;2023-04-15T02:44:40;2.90;;;2.40;;
14381;SDS011;7275;50.328;8.720;2023-04-15T02:47:08;3.87;;;2.17;;
14381;SDS011;7275;50.328;8.720;2023-04-15T02:49:37;3.53;;;2.10;;
14381;SDS011;7275;50.328;8.720;2023-04-15T02:52:06;2.93;;;2.10;;
14381;SDS011;7275;50.328;8.720;2023-04-15T02:54:35;2.60;;;2.10;;
14381;SDS011;7275;50.328;8.720;2023-04-15T02:57:02;3.00;;;2.33;;
14381;SDS011;7275;50.328;8.720;2023-04-15T02:59:31;3.43;;;2.20;;
14381;SDS011;7275;50.328;8.720;2023-04-15T03:01:59;3.90;;;2.30;;
14381;SDS011;7275;50.328;8.720;2023-04-15T03:04:26;2.40;;;2.10;;
14381;SDS011;7275;50.328;8.720;2023-04-15T03:06:55;2.50;;;1.90;;
14381;SDS011;7275;50.328;8.720;2023-04-15T03:09:24;2.57;;;2.30;;
14381;SDS011;7275;50.328;8.720;2023-04-15T03:11:51;2.60;;;2.23;;
14381;SDS011;7275;50.328;8.720;2023-04-15T03:14:19;3.77;;;2.13;;
14381;SDS011;7275;50.328;8.720;2023-04-15T03:16:47;3.40;;;2.30;;
14381;SDS011;7275;50.328;8.720;2023-04-15T03:19:15;2.43;;;1.90;;
14381;SDS011;7275;50.328;8.720;2023-04-15T03:21:43;2.30;;;2.03;;
14381;SDS011;7275;50.328;8.720;2023-04-15T03:24:10;2.30;;;1.83;;
14381;SDS011;7275;50.328;8.720;2023-04-15T03:26:39;3.87;;;2.10;;
14381;SDS011;7275;50.328;8.720;2023-04-15T03:29:06;2.37;;;2.00;;
14381;SDS011;7275;50.328;8.720;2023-04-15T03:31:34;4.20;;;2.20;;
14381;SDS011;7275;50.328;8.720;2023-04-15T03:34:02;3.50;;;2.00;;
14381;SDS011;7275;50.328;8.720;2023-04-15T03:36:29;2.67;;;1.90;;
14381;SDS011;7275;50.328;8.720;2023-04-15T03:38:58;2.63;;;2.10;;
14381;SDS011;7275;50.328;8.720;2023-04-15T03:41:27;3.20;;;2.03;;
14381;SDS011;7275;50.328;8.720;2023-04-15T03:43:56;3.40;;;2.23;;
14381;SDS011;7275;50.328;8.720;2023-04-15T03:46:23;2.37;;;1.87;;
14381;SDS011;7275;50.328;8.720;2023-04-15T03:48:51;3.13;;;2.07;;
14381;SDS011;7275;50.328;8.720;2023-04-15T03:51:19;2.47;;;1.83;;
14381;SDS011;7275;50.328;8.720;2023-04-15T03:53:47;3.00;;;2.17;;
14381;SDS011;7275;50.328;8.720;2023-04-15T03:56:14;2.20;;;2.00;;
14381;SDS011;7275;50.328;8.720;2023-04-15T03:58:42;3.43;;;2.00;;
14381;SDS011;7275;50.328;8.720;2023-04-15T04:01:11;2.30;;;2.07;;
14381;SDS011;7275;50.328;8.720;2023-04-15T04:03:38;2.17;;;1.90;;
14381;SDS011;7275;50.328;8.720;2023-04-15T04:06:06;2.50;;;2.00;;
14381;SDS011;7275;50.328;8.720;2023-04-15T04:08:34;2.37;;;2.00;;
14381;SDS011;7275;50.328;8.720;2023-04-15T04:11:01;2.83;;;1.70;;
14381;SDS011;7275;50.328;8.720;2023-04-15T04:13:29;2.70;;;1.93;;
14381;SDS011;7275;50.328;8.720;2023-04-15T04:15:57;2.10;;;1.90;;
14381;SDS011;7275;50.328;8.720;2023-04-15T04:18:25;1.97;;;1.83;;
14381;SDS011;7275;50.328;8.720;2023-04-15T04:20:53;1.83;;;1.73;;
14381;SDS011;7275;50.328;8.720;2023-04-15T04:23:21;3.10;;;1.80;;
14381;SDS011;7275;50.328;8.720;2023-04-15T04:25:48;1.80;;;1.70;;
14381;SDS011;7275;50.328;8.720;2023-04-15T04:28:16;2.03;;;1.70;;
14381;SDS011;7275;50.328;8.720;2023-04-15T04:30:43;1.93;;;1.50;;
14381;SDS011;7275;50.328;8.720;2023-04-15T04:33:11;3.20;;;1.63;;
14381;SDS011;7275;50.328;8.720;2023-04-15T04:35:41;4.07;;;1.73;;
14381;SDS011;7275;50.328;8.720;2023-04-15T04:38:09;2.13;;;1.50;;
14381;SDS011;7275;50.328;8.720;2023-04-15T04:40:36;1.93;;;1.73;;
14381;SDS011;7275;50.328;8.720;2023-04-15T04:43:04;1.73;;;1.60;;
14381;SDS011;7275;50.328;8.720;2023-04-15T04:45:31;2.10;;;1.60;;
14381;SDS011;7275;50.328;8.720;2023-04-15T04:47:59;2.03;;;1.73;;
14381;SDS011;7275;50.328;8.720;2023-04-15T04:50:26;2.30;;;1.73;;
14381;SDS011;7275;50.328;8.720;2023-04-15T04:52:55;2.43;;;1.93;;
14381;SDS011;7275;50.328;8.720;2023-04-15T04:55:23;3.13;;;2.20;;
14381;SDS011;7275;50.328;8.720;2023-04-15T04:57:50;2.87;;;2.00;;
14381;SDS011;7275;50.328;8.720;2023-04-15T05:00:18;1.90;;;1.80;;
14381;SDS011;7275;50.328;8.720;2023-04-15T05:02:46;1.97;;;1.77;;
14381;SDS011;7275;50.328;8.720;2023-04-15T05:05:14;2.03;;;1.83;;
14381;SDS011;7275;50.328;8.720;2023-04-15T05:07:41;2.43;;;1.80;;
14381;SDS011;7275;50.328;8.720;2023-04-15T05:10:10;2.40;;;1.80;;
14381;SDS011;7275;50.328;8.720;2023-04-15T05:12:39;2.23;;;1.70;;
14381;SDS011;7275;50.328;8.720;2023-04-15T05:15:07;3.03;;;1.90;;
14381;SDS011;7275;50.328;8.720;2023-04-15T05:17:35;2.83;;;1.70;;
14381;SDS011;7275;50.328;8.720;2023-04-15T05:20:03;2.30;;;1.70;;
14381;SDS011;7275;50.328;8.720;2023-04-15T05:22:31;2.00;;;1.80;;
14381;SDS011;7275;50.328;8.720;2023-04-15T05:24:59;3.40;;;1.70;;
14381;SDS011;7275;50.328;8.720;2023-04-15T05:27:28;2.37;;;1.80;;
14381;SDS011;7275;50.328;8.720;2023-04-15T05:29:55;3.07;;;1.90;;
14381;SDS011;7275;50.328;8.720;2023-04-15T05:32:23;2.53;;;1.70;;
14381;SDS011;7275;50.328;8.720;2023-04-15T05:34:51;1.93;;;1.70;;
14381;SDS011;7275;50.328;8.720;2023-04-15T05:37:18;3.13;;;1.73;;
14381;SDS011;7275;50.328;8.720;2023-04-15T05:39:47;2.17;;;1.60;;
14381;SDS011;7275;50.328;8.720;2023-04-15T05:42:14;3.33;;;1.70;;
14381;SDS011;7275;50.328;8.720;2023-04-15T05:44:43;2.10;;;1.70;;
14381;SDS011;7275;50.328;8.720;2023-04-15T05:47:11;2.70;;;2.13;;
14381;SDS011;7275;50.328;8.720;2023-04-15T05:49:38;4.13;;;3.40;;
14381;SDS011;7275;50.328;8.720;2023-04-15T05:52:06;4.90;;;3.80;;
14381;SDS011;7275;50.328;8.720;2023-04-15T05:54:33;4.73;;;3.40;;
14381;SDS011;7275;50.328;8.720;2023-04-15T05:57:01;3.60;;;3.30;;
14381;SDS011;7275;50.328;8.720;2023-04-15T05:59:29;3.40;;;3.10;;
14381;SDS011;7275;50.328;8.720;2023-04-15T06:01:58;4.27;;;3.70;;
14381;SDS011;7275;50.328;8.720;2023-04-15T06:04:26;4.40;;;3.27;;
14381;SDS011;7275;50.328;8.720;2023-04-15T06:06:54;3.80;;;3.30;;
14381;SDS011;7275;50.328;8.720;2023-04-15T06:09:21;3.83;;;3.50;;
14381;SDS011;7275;50.328;8.720;2023-04-15T06:11:49;4.00;;;3.60;;
14381;SDS011;7275;50.328;8.720;2023-04-15T06:14:17;3.73;;;3.37;;
14381;SDS011;7275;50.328;8.720;2023-04-15T06:16:45;3.77;;;3.40;;
14381;SDS011;7275;50.328;8.720;2023-04-15T06:19:14;3.53;;;3.23;;
14381;SDS011;7275;50.328;8.720;2023-04-15T06:21:41;3.90;;;3.50;;
14381;SDS011;7275;50.328;8.720;2023-04-15T06:24:09;4.17;;;3.77;;
14381;SDS011;7275;50.328;8.720;2023-04-15T06:26:37;3.87;;;3.50;;
14381;SDS011;7275;50.328;8.720;2023-04-15T06:29:04;4.00;;;3.60;;
14381;SDS011;7275;50.328;8.720;2023-04-15T06:31:32;4.20;;;3.80;;
14381;SDS011;7275;50.328;8.720;2023-04-15T06:34:00;4.60;;;3.80;;
14381;SDS011;7275;50.328;8.720;2023-04-15T06:36:28;5.30;;;4.13;;
14381;SDS011;7275;50.328;8.720;2023-04-15T06:38:57;4.47;;;3.73;;
14381;SDS011;7275;50.328;8.720;2023-04-15T06:41:25;4.23;;;3.83;;
14381;SDS011;7275;50.328;8.720;2023-04-15T06:43:52;5.17;;;3.97;;
14381;SDS011;7275;50.328;8.720;2023-04-15T06:46:20;5.67;;;4.07;;
14381;SDS011;7275;50.328;8.720;2023-04-15T06:48:48;4.10;;;3.67;;
14381;SDS011;7275;50.328;8.720;2023-04-15T06:51:15;4.23;;;3.83;;
14381;SDS011;7275;50.328;8.720;2023-04-15T06:53:44;3.97;;;3.67;;
14381;SDS011;7275;50.328;8.720;2023-04-15T06:56:12;4.43;;;4.03;;
14381;SDS011;7275;50.328;8.720;2023-04-15T06:58:39;4.90;;;3.67;;
14381;SDS011;7275;50.328;8.720;2023-04-15T07:01:07;4.37;;;3.97;;
14381;SDS011;7275;50.328;8.720;2023-04-15T07:03:34;4.27;;;3.87;;
14381;SDS011;7275;50.328;8.720;2023-04-15T07:06:02;3.67;;;3.37;;
14381;SDS011;7275;50.328;8.720;2023-04-15T07:08:31;4.00;;;3.60;;
14381;SDS011;7275;50.328;8.720;2023-04-15T07:11:00;4.23;;;3.77;;
14381;SDS011;7275;50.328;8.720;2023-04-15T07:13:29;4.33;;;3.93;;
14381;SDS011;7275;50.328;8.720;2023-04-15T07:15:57;3.90;;;3.40;;
14381;SDS011;7275;50.328;8.720;2023-04-15T07:18:25;4.07;;;3.63;;
14381;SDS011;7275;50.328;8.720;2023-04-15T07:20:52;4.20;;;3.77;;
14381;SDS011;7275;50.328;8.720;2023-04-15T07:23:20;4.70;;;3.67;;
14381;SDS011;7275;50.328;8.720;2023-04-15T07:25:47;4.07;;;3.63;;
14381;SDS011;7275;50.328;8.720;2023-04-15T07:28:16;4.33;;;3.93;;
14381;SDS011;7275;50.328;8.720;2023-04-15T07:30:44;5.07;;;3.60;;
14381;SDS011;7275;50.328;8.720;2023-04-15T07:33:11;3.90;;;3.50;;
14381;SDS011;7275;50.328;8.720;2023-04-15T07:35:39;4.20;;;3.80;;
14381;SDS011;7275;50.328;8.720;2023-04-15T07:38:07;3.93;;;3.53;;
14381;SDS011;7275;50.328;8.720;2023-04-15T07:40:34;4.20;;;3.40;;
14381;SDS011;7275;50.328;8.720;2023-04-15T07:43:02;4.30;;;3.90;;
14381;SDS011;7275;50.328;8.720;2023-04-15T07:45:31;3.80;;;3.47;;
14381;SDS011;7275;50.328;8.720;2023-04-15T07:47:59;4.47;;;3.67;;
14381;SDS011;7275;50.328;8.720;2023-04-15T07:50:27;4.27;;;3.87;;
14381;SDS011;7275;50.328;8.720;2023-04-15T07:52:55;3.63;;;3.33;;
14381;SDS011;7275;50.328;8.720;2023-04-15T07:55:23;3.93;;;3.40;;
14381;SDS011;7275;50.328;8.720;2023-04-15T07:57:53;3.70;;;3.23;;
14381;SDS011;7275;50.328;8.720;2023-04-15T08:00:20;4.23;;;3.30;;
14381;SDS011;7275;50.328;8.720;2023-04-15T08:02:50;4.60;;;4.00;;
14381;SDS011;7275;50.328;8.720;2023-04-15T08:05:18;4.57;;;4.10;;
14381;SDS011;7275;50.328;8.720;2023-04-15T08:07:46;4.33;;;3.70;;
14381;SDS011;7275;50.328;8.720;2023-04-15T08:10:14;3.87;;;3.50;;
14381;SDS011;7275;50.328;8.720;2023-04-15T08:12:41;5.10;;;4.33;;
14381;SDS011;7275;50.328;8.720;2023-04-15T08:15:09;4.47;;;3.80;;
14381;SDS011;7275;50.328;8.720;2023-04-15T08:17:38;4.10;;;3.70;;
14381;SDS011;7275;50.328;8.720;2023-04-15T08:20:07;4.17;;;3.77;;
14381;SDS011;7275;50.328;8.720;2023-04-15T08:22:35;4.70;;;3.67;;
14381;SDS011;7275;50.328;8.720;2023-04-15T08:25:03;5.47;;;3.67;;
14381;SDS011;7275;50.328;8.720;2023-04-15T08:27:30;4.23;;;3.47;;
14381;SDS011;7275;50.328;8.720;2023-04-15T08:29:58;3.53;;;3.13;;
14381;SDS011;7275;50.328;8.720;2023-04-15T08:32:29;3.33;;;3.03;;
14381;SDS011;7275;50.328;8.720;2023-04-15T08:34:57;4.07;;;3.10;;
14381;SDS011;7275;50.328;8.720;2023-04-15T08:37:27;3.13;;;2.83;;
14381;SDS011;7275;50.328;8.720;2023-04-15T08:39:54;3.33;;;2.67;;
14381;SDS011;7275;50.328;8.720;2023-04-15T08:42:22;4.03;;;2.73;;
14381;SDS011;7275;50.328;8.720;2023-04-15T08:44:53;3.33;;;2.70;;
14381;SDS011;7275;50.328;8.720;2023-04-15T08:47:21;2.67;;;2.47;;
14381;SDS011;7275;50.328;8.720;2023-04-15T08:49:56;3.13;;;2.37;;
14381;SDS011;7275;50.328;8.720;2023-04-15T08:52:24;2.40;;;2.20;;
14381;SDS011;7275;50.328;8.720;2023-04-15T08:54:55;2.80;;;2.50;;
14381;SDS011;7275;50.328;8.720;2023-04-15T08:57:25;2.70;;;2.20;;
14381;SDS011;7275;50.328;8.720;2023-04-15T08:59:54;2.30;;;2.10;;
14381;SDS011;7275;50.328;8.720;2023-04-15T09:02:22;2.53;;;2.30;;
14381;SDS011;7275;50.328;8.720;2023-04-15T09:04:51;2.50;;;2.30;;
14381;SDS011;7275;50.328;8.720;2023-04-15T09:07:20;2.40;;;2.20;;
14381;SDS011;7275;50.328;8.720;2023-04-15T09:09:48;2.20;;;2.00;;
14381;SDS011;7275;50.328;8.720;2023-04-15T09:12:16;1.97;;;1.80;;
14381;SDS011;7275;50.328;8.720;2023-04-15T09:14:44;2.00;;;1.90;;
14381;SDS011;7275;50.328;8.720;2023-04-15T09:17:13;2.20;;;2.00;;
14381;SDS011;7275;50.328;8.720;2023-04-15T09:19:45;2.20;;;2.00;;
14381;SDS011;7275;50.328;8.720;2023-04-15T09:22:13;2.60;;;2.07;;
14381;SDS011;7275;50.328;8.720;2023-04-15T09:24:41;2.20;;;2.00;;
14381;SDS011;7275;50.328;8.720;2023-04-15T09:27:10;2.27;;;1.90;;
14381;SDS011;7275;50.328;8.720;2023-04-15T09:29:42;2.20;;;2.00;;
14381;SDS011;7275;50.328;8.720;2023-04-15T09:32:11;2.30;;;1.80;;
14381;SDS011;7275;50.328;8.720;2023-04-15T09:34:39;1.93;;;1.80;;
14381;SDS011;7275;50.328;8.720;2023-04-15T09:37:07;2.10;;;1.90;;
14381;SDS011;7275;50.328;8.720;2023-04-15T09:39:45;1.90;;;1.70;;
14381;SDS011;7275;50.328;8.720;2023-04-15T09:42:16;2.47;;;1.80;;
14381;SDS011;7275;50.328;8.720;2023-04-15T09:44:49;1.63;;;1.53;;
14381;SDS011;7275;50.328;8.720;2023-04-15T09:47:27;1.83;;;1.70;;
14381;SDS011;7275;50.328;8.720;2023-04-15T09:49:55;1.77;;;1.67;;
14381;SDS011;7275;50.328;8.720;2023-04-15T09:52:23;2.00;;;1.60;;
14381;SDS011;7275;50.328;8.720;2023-04-15T09:54:51;2.30;;;1.80;;
14381;SDS011;7275;50.328;8.720;2023-04-15T09:57:21;2.03;;;1.70;;
14381;SDS011;7275;50.328;8.720;2023-04-15T09:59:49;1.97;;;1.70;;
14381;SDS011;7275;50.328;8.720;2023-04-15T10:02:17;1.63;;;1.50;;
14381;SDS011;7275;50.328;8.720;2023-04-15T10:04:47;1.90;;;1.60;;
14381;SDS011;7275;50.328;8.720;2023-04-15T10:07:16;1.77;;;1.67;;
14381;SDS011;7275;50.328;8.720;2023-04-15T10:09:45;1.77;;;1.57;;
14381;SDS011;7275;50.328;8.720;2023-04-15T10:12:14;1.70;;;1.60;;
14381;SDS011;7275;50.328;8.720;2023-04-15T10:14:45;1.83;;;1.70;;
14381;SDS011;7275;50.328;8.720;2023-04-15T10:17:20;1.60;;;1.50;;
14381;SDS011;7275;50.328;8.720;2023-04-15T10:19:49;1.80;;;1.60;;
14381;SDS011;7275;50.328;8.720;2023-04-15T10:22:20;1.80;;;1.70;;
14381;SDS011;7275;50.328;8.720;2023-04-15T10:24:49;2.00;;;1.80;;
14381;SDS011;7275;50.328;8.720;2023-04-15T10:27:17;6.10;;;1.70;;
14381;SDS011;7275;50.328;8.720;2023-04-15T10:29:49;2.00;;;1.80;;
14381;SDS011;7275;50.328;8.720;2023-04-15T10:32:17;1.90;;;1.57;;
14381;SDS011;7275;50.328;8.720;2023-04-15T10:34:47;1.63;;;1.50;;
14381;SDS011;7275;50.328;8.720;2023-04-15T10:37:19;1.87;;;1.70;;
14381;SDS011;7275;50.328;8.720;2023-04-15T10:39:48;2.17;;;1.50;;
14381;SDS011;7275;50.328;8.720;2023-04-15T10:42:16;2.43;;;1.60;;
14381;SDS011;7275;50.328;8.720;2023-04-15T10:44:49;1.70;;;1.53;;
14381;SDS011;7275;50.328;8.720;2023-04-15T10:47:18;1.60;;;1.50;;
14381;SDS011;7275;50.328;8.720;2023-04-15T10:49:48;1.87;;;1.60;;
14381;SDS011;7275;50.328;8.720;2023-04-15T10:52:17;1.63;;;1.53;;
14381;SDS011;7275;50.328;8.720;2023-04-15T10:54:49;1.70;;;1.60;;
14381;SDS011;7275;50.328;8.720;2023-04-15T10:57:20;1.70;;;1.60;;
14381;SDS011;7275;50.328;8.720;2023-04-15T11:00:00;1.63;;;1.53;;
14381;SDS011;7275;50.328;8.720;2023-04-15T11:02:37;1.63;;;1.53;;
14381;SDS011;7275;50.328;8.720;2023-04-15T11:05:07;1.50;;;1.40;;
14381;SDS011;7275;50.328;8.720;2023-04-15T11:07:36;1.50;;;1.40;;
14381;SDS011;7275;50.328;8.720;2023-04-15T11:13:21;1.30;;;1.20;;
14381;SDS011;7275;50.328;8.720;2023-04-15T11:15:55;1.30;;;1.20;;
14381;SDS011;7275;50.328;8.720;2023-04-15T11:18:25;1.30;;;1.20;;
14381;SDS011;7275;50.328;8.720;2023-04-15T11:20:55;1.50;;;1.40;;
14381;SDS011;7275;50.328;8.720;2023-04-15T11:23:31;1.63;;;1.43;;
14381;SDS011;7275;50.328;8.720;2023-04-15T11:26:01;1.50;;;1.40;;
14381;SDS011;7275;50.328;8.720;2023-04-15T11:28:31;1.50;;;1.40;;
14381;SDS011;7275;50.328;8.720;2023-04-15T11:31:05;1.70;;;1.60;;
14381;SDS011;7275;50.328;8.720;2023-04-15T11:33:36;1.70;;;1.47;;
14381;SDS011;7275;50.328;8.720;2023-04-15T11:36:06;2.23;;;1.60;;
14381;SDS011;7275;50.328;8.720;2023-04-15T11:38:33;1.67;;;1.57;;
14381;SDS011;7275;50.328;8.720;2023-04-15T11:41:02;1.73;;;1.63;;
14381;SDS011;7275;50.328;8.720;2023-04-15T11:43:30;1.90;;;1.70;;
14381;SDS011;7275;50.328;8.720;2023-04-15T11:46:01;1.60;;;1.50;;
14381;SDS011;7275;50.328;8.720;2023-04-15T11:48:31;1.60;;;1.50;;
14381;SDS011;7275;50.328;8.720;2023-04-15T11:51:00;1.60;;;1.50;;
14381;SDS011;7275;50.328;8.720;2023-04-15T11:53:36;1.90;;;1.70;;
14381;SDS011;7275;50.328;8.720;2023-04-15T11:56:06;1.70;;;1.60;;
14381;SDS011;7275;50.328;8.720;2023-04-15T11:58:35;2.23;;;2.03;;
14381;SDS011;7275;50.328;8.720;2023-04-15T12:01:04;3.23;;;2.90;;
14381;SDS011;7275;50.328;8.720;2023-04-15T12:03:37;3.27;;;2.87;;
14381;SDS011;7275;50.328;8.720;2023-04-15T12:06:08;4.17;;;3.30;;
14381;SDS011;7275;50.328;8.720;2023-04-15T12:08:52;3.20;;;2.90;;
14381;SDS011;7275;50.328;8.720;2023-04-15T12:14:11;2.57;;;2.30;;
14381;SDS011;7275;50.328;8.720;2023-04-15T12:16:44;2.10;;;1.90;;
14381;SDS011;7275;50.328;8.720;2023-04-15T12:19:22;2.20;;;2.00;;
14381;SDS011;7275;50.328;8.720;2023-04-15T12:21:52;1.97;;;1.77;;
14381;SDS011;7275;50.328;8.720;2023-04-15T12:24:20;1.93;;;1.70;;
14381;SDS011;7275;50.328;8.720;2023-04-15T12:26:49;1.77;;;1.67;;
14381;SDS011;7275;50.328;8.720;2023-04-15T12:29:19;1.67;;;1.57;;
14381;SDS011;7275;50.328;8.720;2023-04-15T12:31:52;2.13;;;1.67;;
14381;SDS011;7275;50.328;8.720;2023-04-15T12:34:28;1.80;;;1.70;;
14381;SDS011;7275;50.328;8.720;2023-04-15T12:36:58;1.63;;;1.53;;
14381;SDS011;7275;50.328;8.720;2023-04-15T12:39:27;1.70;;;1.60;;
14381;SDS011;7275;50.328;8.720;2023-04-15T12:41:56;1.70;;;1.60;;
14381;SDS011;7275;50.328;8.720;2023-04-15T12:44:23;1.50;;;1.40;;
14381;SDS011;7275;50.328;8.720;2023-04-15T12:46:52;1.30;;;1.20;;
14381;SDS011;7275;50.328;8.720;2023-04-15T12:49:20;2.23;;;1.27;;
14381;SDS011;7275;50.328;8.720;2023-04-15T12:51:51;1.30;;;1.20;;
14381;SDS011;7275;50.328;8.720;2023-04-15T12:54:20;1.20;;;1.10;;
14381;SDS011;7275;50.328;8.720;2023-04-15T12:56:48;1.20;;;1.10;;
14381;SDS011;7275;50.328;8.720;2023-04-15T12:59:16;1.27;;;1.17;;
14381;SDS011;7275;50.328;8.720;2023-04-15T13:01:44;1.40;;;1.30;;
14381;SDS011;7275;50.328;8.720;2023-04-15T13:04:13;1.50;;;1.20;;
14381;SDS011;7275;50.328;8.720;2023-04-15T13:06:40;1.30;;;1.20;;
14381;SDS011;7275;50.328;8.720;2023-04-15T13:09:10;1.30;;;1.20;;
14381;SDS011;7275;50.328;8.720;2023-04-15T13:11:37;1.20;;;1.10;;
14381;SDS011;7275;50.328;8.720;2023-04-15T13:14:06;1.23;;;1.13;;
14381;SDS011;7275;50.328;8.720;2023-04-15T13:16:34;1.20;;;1.10;;
14381;SDS011;7275;50.328;8.720;2023-04-15T13:19:02;1.07;;;1.00;;
14381;SDS011;7275;50.328;8.720;2023-04-15T13:21:30;1.20;;;1.10;;
14381;SDS011;7275;50.328;8.720;2023-04-15T13:24:01;1.20;;;1.10;;
14381;SDS011;7275;50.328;8.720;2023-04-15T13:26:31;1.23;;;1.13;;
14381;SDS011;7275;50.328;8.720;2023-04-15T13:28:59;1.10;;;1.00;;
14381;SDS011;7275;50.328;8.720;2023-04-15T13:31:27;1.40;;;1.30;;
14381;SDS011;7275;50.328;8.720;2023-04-15T13:33:55;1.50;;;1.10;;
14381;SDS011;7275;50.328;8.720;2023-04-15T13:36:22;2.10;;;1.70;;
14381;SDS011;7275;50.328;8.720;2023-04-15T13:38:51;1.00;;;1.00;;
14381;SDS011;7275;50.328;8.720;2023-04-15T13:41:19;2.23;;;1.90;;
14381;SDS011;7275;50.328;8.720;2023-04-15T13:43:47;1.70;;;1.60;;
14381;SDS011;7275;50.328;8.720;2023-04-15T13:46:15;1.47;;;1.20;;
14381;SDS011;7275;50.328;8.720;2023-04-15T13:48:43;1.30;;;1.20;;
14381;SDS011;7275;50.328;8.720;2023-04-15T13:51:10;2.17;;;1.40;;
14381;SDS011;7275;50.328;8.720;2023-04-15T13:53:38;1.20;;;1.10;;
14381;SDS011;7275;50.328;8.720;2023-04-15T13:56:05;1.40;;;1.30;;
14381;SDS011;7275;50.328;8.720;2023-04-15T13:58:34;1.60;;;1.50;;
14381;SDS011;7275;50.328;8.720;2023-04-15T14:01:04;1.30;;;1.20;;
14381;SDS011;7275;50.328;8.720;2023-04-15T14:03:33;1.30;;;1.20;;
14381;SDS011;7275;50.328;8.720;2023-04-15T14:06:02;1.33;;;1.23;;
14381;SDS011;7275;50.328;8.720;2023-04-15T14:08:30;1.37;;;1.27;;
14381;SDS011;7275;50.328;8.720;2023-04-15T14:10:57;1.40;;;1.30;;
14381;SDS011;7275;50.328;8.720;2023-04-15T14:13:24;1.57;;;1.47;;
14381;SDS011;7275;50.328;8.720;2023-04-15T14:15:52;1.40;;;1.30;;
14381;SDS011;7275;50.328;8.720;2023-04-15T14:18:21;1.50;;;1.40;;
14381;SDS011;7275;50.328;8.720;2023-04-15T14:20:48;1.60;;;1.50;;
14381;SDS011;7275;50.328;8.720;2023-04-15T14:23:16;1.77;;;1.67;;
14381;SDS011;7275;50.328;8.720;2023-04-15T14:25:43;1.80;;;1.70;;
14381;SDS011;7275;50.328;8.720;2023-04-15T14:28:13;1.70;;;1.60;;
14381;SDS011;7275;50.328;8.720;2023-04-15T14:30:41;1.30;;;1.20;;
14381;SDS011;7275;50.328;8.720;2023-04-15T14:33:08;1.40;;;1.30;;
14381;SDS011;7275;50.328;8.720;2023-04-15T14:35:37;1.23;;;1.17;;
14381;SDS011;7275;50.328;8.720;2023-04-15T14:38:05;1.13;;;1.03;;
14381;SDS011;7275;50.328;8.720;2023-04-15T14:40:35;1.93;;;1.30;;
14381;SDS011;7275;50.328;8.720;2023-04-15T14:43:03;1.00;;;1.00;;
14381;SDS011;7275;50.328;8.720;2023-04-15T14:45:31;1.60;;;1.20;;
14381;SDS011;7275;50.328;8.720;2023-04-15T14:47:58;1.10;;;1.00;;
14381;SDS011;7275;50.328;8.720;2023-04-15T14:50:26;1.00;;;1.00;;
14381;SDS011;7275;50.328;8.720;2023-04-15T14:52:55;1.00;;;1.00;;
14381;SDS011;7275;50.328;8.720;2023-04-15T14:55:23;0.90;;;0.90;;
14381;SDS011;7275;50.328;8.720;2023-04-15T14:57:50;1.00;;;1.00;;
14381;SDS011;7275;50.328;8.720;2023-04-15T15:00:18;1.10;;;1.00;;
14381;SDS011;7275;50.328;8.720;2023-04-15T15:02:45;1.30;;;1.00;;
14381;SDS011;7275;50.328;8.720;2023-04-15T15:05:13;1.20;;;1.10;;
14381;SDS011;7275;50.328;8.720;2023-04-15T15:07:41;1.90;;;1.40;;
14381;SDS011;7275;50.328;8.720;2023-04-15T15:10:10;1.20;;;1.10;;
14381;SDS011;7275;50.328;8.720;2023-04-15T15:12:37;1.20;;;1.10;;
14381;SDS011;7275;50.328;8.720;2023-04-15T15:15:05;0.90;;;0.90;;